Aeroporto :
LOGIN :

Iscrizione | Disclaimer

   EN    FR    IT 

 










Sommario :    VFR   VFR Marginale   IFR   IFR Intensivo   IFR Molto Intensivo
Visibilità : 
Base nubi : 
>= 8 km
>= 3000ft
5 / 8 km
1000 / 3000 ft
1500m / 5 km
500 / 1000 ft
800 / 1500m
200 / 500 ft
< 800m
< 200 ft
Simboli :   Temporali  Nebbia  Neve Forte  Precipitazioni Forti  Vento > 20 kt
SIGMETs :   Varie  Temporali  Ghiacco  Turbolenza  Onda orograficha  Ceneri Vulcaniche






- Altitudine del aeroporto : 112 ft
- Codice IATA : SVQ


LEZL - Sevilla San Pablo

ULTIMO METAR :
  • 191500Z 01015KT 340V040 CAVOK 16/06 Q1018 NOSIG

METARs OBSOLETI :
  • 191430Z 01011KT 340V040 CAVOK 17/06 Q1018 NOSIG
  • 191400Z 03019KT 360V060 CAVOK 16/05 Q1018 NOSIG
  • 191330Z 02015KT 350V050 CAVOK 16/05 Q1018 NOSIG
  • 191300Z 36008KT 320V050 CAVOK 16/07 Q1019 NOSIG
  • 191230Z 01009KT 330V050 9999 FEW035 15/07 Q1020 NOSIG

TAF TAF LEZL
Valido dal 19 a 15 ore il 20 a 15 ore UTC


191400Z 1915/2015 03015KT 9999 FEW025 TX14/2015Z TN07/2007Z
TEMPO 1915/1922 03015G25KT
TEMPO 2010/2015 03020G30KT



MetMap, La meteo Aeronautica in un colpo d'occhio ! - Copyright ORBIFLY Dicembre 2007 - Disclaimer

ORBIFLY MET'MAP TEAM :

Programmazione e sviluppo : Alexandra Zaïnal
Concezione : Baudouin d'Aumeries
Aiuto per la programmazione : Marc-Olivier Méhu
Supporto tecnico e logistico : Manuel Goepfert
Aiuto per la traduzione : Arnaldo La Scala

Contatto : metmap@orbifly.com




FONTI E CREDITI :

   NOAA